ガーンジー島 の空港の天気 - METARとTAF

ガーンジー空港 ( EGJB / GCI ) - ガーンジー島 ガーンジー島
飛行場実況気象(Metar)
観測時間03/09 05:50 GMT (03/09 05:50 UTC)
風向・風速北北西 2m/s
視程10km以上
天気現象
少しの雲 雲底高度 550m
気温4℃
湿度87%
気圧1022hPa
METAREGJB 090550Z 33004KT 9999 FEW018 04/02 Q1022
過去の天気等 Google飛行場航空写真 Wunderground天気予報

過去48時間のMETAR

飛行場予報(TAF)
発表時間: 3/09 05:44 GMT (3/09 05:44 UTC)
予報対象時間: 9日6時 GMT ~ 9日15時 GMT
風向・風速北西 3m/s
視程10km以上
少しの雲 雲底高度 610m
TAF EGJB 090544Z 0906/0915 32005KT 9999 FEW020